sensor_id;sensor_type;location;lat;lon;timestamp;P1;durP1;ratioP1;P2;durP2;ratioP2
2622;SDS011;1321;48.690;9.022;2023-04-02T00:08:25;10.50;;;10.30;;
2622;SDS011;1321;48.690;9.022;2023-04-02T00:10:58;11.23;;;10.90;;
2622;SDS011;1321;48.690;9.022;2023-04-02T00:13:29;11.00;;;10.80;;
2622;SDS011;1321;48.690;9.022;2023-04-02T00:16:01;10.80;;;10.60;;
2622;SDS011;1321;48.690;9.022;2023-04-02T00:18:32;12.00;;;11.60;;
2622;SDS011;1321;48.690;9.022;2023-04-02T00:21:10;11.27;;;11.07;;
2622;SDS011;1321;48.690;9.022;2023-04-02T00:23:43;11.20;;;11.00;;
2622;SDS011;1321;48.690;9.022;2023-04-02T00:26:23;11.40;;;11.17;;
2622;SDS011;1321;48.690;9.022;2023-04-02T00:28:57;11.33;;;11.13;;
2622;SDS011;1321;48.690;9.022;2023-04-02T00:31:26;11.53;;;11.33;;
2622;SDS011;1321;48.690;9.022;2023-04-02T00:33:54;11.03;;;10.83;;
2622;SDS011;1321;48.690;9.022;2023-04-02T00:36:23;11.30;;;11.10;;
2622;SDS011;1321;48.690;9.022;2023-04-02T00:38:55;11.30;;;11.10;;
2622;SDS011;1321;48.690;9.022;2023-04-02T00:41:27;11.13;;;10.93;;
2622;SDS011;1321;48.690;9.022;2023-04-02T00:44:01;11.40;;;11.20;;
2622;SDS011;1321;48.690;9.022;2023-04-02T00:46:32;11.27;;;11.07;;
2622;SDS011;1321;48.690;9.022;2023-04-02T00:49:14;11.30;;;11.10;;
2622;SDS011;1321;48.690;9.022;2023-04-02T00:51:47;11.50;;;11.10;;
2622;SDS011;1321;48.690;9.022;2023-04-02T00:54:19;11.20;;;11.00;;
2622;SDS011;1321;48.690;9.022;2023-04-02T00:56:52;11.30;;;11.10;;
2622;SDS011;1321;48.690;9.022;2023-04-02T00:59:24;11.50;;;11.10;;
2622;SDS011;1321;48.690;9.022;2023-04-02T01:01:56;10.93;;;10.70;;
2622;SDS011;1321;48.690;9.022;2023-04-02T01:04:28;10.90;;;10.70;;
2622;SDS011;1321;48.690;9.022;2023-04-02T01:07:01;10.80;;;10.60;;
2622;SDS011;1321;48.690;9.022;2023-04-02T01:12:36;10.90;;;10.70;;
2622;SDS011;1321;48.690;9.022;2023-04-02T01:15:17;11.50;;;11.30;;
2622;SDS011;1321;48.690;9.022;2023-04-02T01:17:51;11.43;;;11.23;;
2622;SDS011;1321;48.690;9.022;2023-04-02T01:23:34;12.20;;;11.80;;
2622;SDS011;1321;48.690;9.022;2023-04-02T01:26:12;11.87;;;11.67;;
2622;SDS011;1321;48.690;9.022;2023-04-02T01:28:54;11.83;;;11.63;;
2622;SDS011;1321;48.690;9.022;2023-04-02T01:31:29;11.63;;;11.43;;
2622;SDS011;1321;48.690;9.022;2023-04-02T01:33:59;11.60;;;11.40;;
2622;SDS011;1321;48.690;9.022;2023-04-02T01:36:32;11.70;;;11.50;;
2622;SDS011;1321;48.690;9.022;2023-04-02T01:39:11;11.70;;;11.50;;
2622;SDS011;1321;48.690;9.022;2023-04-02T01:41:53;11.60;;;11.40;;
2622;SDS011;1321;48.690;9.022;2023-04-02T01:44:31;12.00;;;11.80;;
2622;SDS011;1321;48.690;9.022;2023-04-02T01:47:06;12.33;;;12.07;;
2622;SDS011;1321;48.690;9.022;2023-04-02T01:49:38;12.27;;;11.97;;
2622;SDS011;1321;48.690;9.022;2023-04-02T01:52:08;11.80;;;11.50;;
2622;SDS011;1321;48.690;9.022;2023-04-02T01:54:43;11.60;;;11.40;;
2622;SDS011;1321;48.690;9.022;2023-04-02T01:57:13;11.50;;;11.27;;
2622;SDS011;1321;48.690;9.022;2023-04-02T01:59:44;11.70;;;11.50;;
2622;SDS011;1321;48.690;9.022;2023-04-02T02:02:12;11.30;;;11.10;;
2622;SDS011;1321;48.690;9.022;2023-04-02T02:04:41;11.70;;;11.40;;
2622;SDS011;1321;48.690;9.022;2023-04-02T02:07:10;11.37;;;11.17;;
2622;SDS011;1321;48.690;9.022;2023-04-02T02:09:42;11.53;;;11.30;;
2622;SDS011;1321;48.690;9.022;2023-04-02T02:12:11;11.60;;;11.40;;
2622;SDS011;1321;48.690;9.022;2023-04-02T02:14:46;11.67;;;11.37;;
2622;SDS011;1321;48.690;9.022;2023-04-02T02:17:16;11.40;;;11.10;;
2622;SDS011;1321;48.690;9.022;2023-04-02T02:19:50;11.37;;;11.10;;
2622;SDS011;1321;48.690;9.022;2023-04-02T02:22:22;11.10;;;10.90;;
2622;SDS011;1321;48.690;9.022;2023-04-02T02:24:55;11.13;;;10.90;;
2622;SDS011;1321;48.690;9.022;2023-04-02T02:27:40;11.63;;;11.33;;
2622;SDS011;1321;48.690;9.022;2023-04-02T02:30:24;11.50;;;11.30;;
2622;SDS011;1321;48.690;9.022;2023-04-02T02:32:57;11.57;;;11.37;;
2622;SDS011;1321;48.690;9.022;2023-04-02T02:35:30;12.13;;;11.90;;
2622;SDS011;1321;48.690;9.022;2023-04-02T02:40:58;11.93;;;11.63;;
2622;SDS011;1321;48.690;9.022;2023-04-02T02:43:29;11.70;;;11.50;;
2622;SDS011;1321;48.690;9.022;2023-04-02T02:46:01;11.43;;;11.23;;
2622;SDS011;1321;48.690;9.022;2023-04-02T02:48:33;12.50;;;12.20;;
2622;SDS011;1321;48.690;9.022;2023-04-02T02:51:04;12.40;;;12.10;;
2622;SDS011;1321;48.690;9.022;2023-04-02T02:53:43;11.70;;;11.50;;
2622;SDS011;1321;48.690;9.022;2023-04-02T02:56:14;12.30;;;11.90;;
2622;SDS011;1321;48.690;9.022;2023-04-02T02:58:43;11.80;;;11.60;;
2622;SDS011;1321;48.690;9.022;2023-04-02T03:01:12;11.83;;;11.63;;
2622;SDS011;1321;48.690;9.022;2023-04-02T03:03:41;11.90;;;11.70;;
2622;SDS011;1321;48.690;9.022;2023-04-02T03:06:13;11.90;;;11.70;;
2622;SDS011;1321;48.690;9.022;2023-04-02T03:08:43;12.13;;;11.83;;
2622;SDS011;1321;48.690;9.022;2023-04-02T03:11:15;11.80;;;11.60;;
2622;SDS011;1321;48.690;9.022;2023-04-02T03:13:49;11.90;;;11.60;;
2622;SDS011;1321;48.690;9.022;2023-04-02T03:16:23;12.20;;;11.80;;
2622;SDS011;1321;48.690;9.022;2023-04-02T03:18:57;12.10;;;11.80;;
2622;SDS011;1321;48.690;9.022;2023-04-02T03:21:30;11.80;;;11.60;;
2622;SDS011;1321;48.690;9.022;2023-04-02T03:24:04;12.40;;;12.10;;
2622;SDS011;1321;48.690;9.022;2023-04-02T03:26:39;11.83;;;11.53;;
2622;SDS011;1321;48.690;9.022;2023-04-02T03:29:12;12.20;;;11.80;;
2622;SDS011;1321;48.690;9.022;2023-04-02T03:31:45;11.90;;;11.50;;
2622;SDS011;1321;48.690;9.022;2023-04-02T03:34:17;12.40;;;12.10;;
2622;SDS011;1321;48.690;9.022;2023-04-02T03:36:51;11.50;;;11.30;;
2622;SDS011;1321;48.690;9.022;2023-04-02T03:39:24;12.10;;;11.90;;
2622;SDS011;1321;48.690;9.022;2023-04-02T03:42:01;11.90;;;11.60;;
2622;SDS011;1321;48.690;9.022;2023-04-02T03:44:34;11.80;;;11.60;;
2622;SDS011;1321;48.690;9.022;2023-04-02T03:47:09;11.80;;;11.60;;
2622;SDS011;1321;48.690;9.022;2023-04-02T03:49:42;12.10;;;11.80;;
2622;SDS011;1321;48.690;9.022;2023-04-02T03:52:16;11.70;;;11.50;;
2622;SDS011;1321;48.690;9.022;2023-04-02T03:54:52;11.40;;;11.20;;
2622;SDS011;1321;48.690;9.022;2023-04-02T03:57:24;11.43;;;11.13;;
2622;SDS011;1321;48.690;9.022;2023-04-02T03:59:57;11.67;;;11.30;;
2622;SDS011;1321;48.690;9.022;2023-04-02T04:02:40;11.50;;;11.30;;
2622;SDS011;1321;48.690;9.022;2023-04-02T04:05:19;11.00;;;10.80;;
2622;SDS011;1321;48.690;9.022;2023-04-02T04:07:51;11.80;;;11.50;;
2622;SDS011;1321;48.690;9.022;2023-04-02T04:10:22;11.53;;;11.33;;
2622;SDS011;1321;48.690;9.022;2023-04-02T04:12:53;12.10;;;11.70;;
2622;SDS011;1321;48.690;9.022;2023-04-02T04:15:25;12.13;;;11.90;;
2622;SDS011;1321;48.690;9.022;2023-04-02T04:18:00;11.90;;;11.70;;
2622;SDS011;1321;48.690;9.022;2023-04-02T04:20:33;11.80;;;11.60;;
2622;SDS011;1321;48.690;9.022;2023-04-02T04:23:07;11.80;;;11.60;;
2622;SDS011;1321;48.690;9.022;2023-04-02T04:25:37;11.50;;;11.30;;
2622;SDS011;1321;48.690;9.022;2023-04-02T04:28:08;11.70;;;11.40;;
2622;SDS011;1321;48.690;9.022;2023-04-02T04:30:46;11.53;;;11.33;;
2622;SDS011;1321;48.690;9.022;2023-04-02T04:33:20;11.83;;;11.63;;
2622;SDS011;1321;48.690;9.022;2023-04-02T04:35:52;11.70;;;11.50;;
2622;SDS011;1321;48.690;9.022;2023-04-02T04:38:26;11.77;;;11.57;;
2622;SDS011;1321;48.690;9.022;2023-04-02T04:41:00;12.40;;;12.10;;
2622;SDS011;1321;48.690;9.022;2023-04-02T04:43:37;11.63;;;11.43;;
2622;SDS011;1321;48.690;9.022;2023-04-02T04:46:11;12.40;;;12.00;;
2622;SDS011;1321;48.690;9.022;2023-04-02T04:48:47;12.63;;;12.33;;
2622;SDS011;1321;48.690;9.022;2023-04-02T04:51:23;11.70;;;11.50;;
2622;SDS011;1321;48.690;9.022;2023-04-02T04:53:53;12.23;;;11.93;;
2622;SDS011;1321;48.690;9.022;2023-04-02T04:56:22;12.00;;;11.70;;
2622;SDS011;1321;48.690;9.022;2023-04-02T04:58:53;12.60;;;12.30;;
2622;SDS011;1321;48.690;9.022;2023-04-02T05:01:28;12.60;;;12.30;;
2622;SDS011;1321;48.690;9.022;2023-04-02T05:04:08;13.13;;;12.77;;
2622;SDS011;1321;48.690;9.022;2023-04-02T05:06:42;12.30;;;12.10;;
2622;SDS011;1321;48.690;9.022;2023-04-02T05:09:19;12.33;;;12.13;;
2622;SDS011;1321;48.690;9.022;2023-04-02T05:11:52;12.60;;;12.30;;
2622;SDS011;1321;48.690;9.022;2023-04-02T05:14:28;12.70;;;12.40;;
2622;SDS011;1321;48.690;9.022;2023-04-02T05:17:03;12.60;;;12.40;;
2622;SDS011;1321;48.690;9.022;2023-04-02T05:19:36;12.50;;;12.30;;
2622;SDS011;1321;48.690;9.022;2023-04-02T05:22:13;12.63;;;12.43;;
2622;SDS011;1321;48.690;9.022;2023-04-02T05:24:50;12.67;;;12.47;;
2622;SDS011;1321;48.690;9.022;2023-04-02T05:27:27;12.73;;;12.43;;
2622;SDS011;1321;48.690;9.022;2023-04-02T05:30:05;13.73;;;13.00;;
2622;SDS011;1321;48.690;9.022;2023-04-02T05:32:39;12.90;;;12.60;;
2622;SDS011;1321;48.690;9.022;2023-04-02T05:35:15;12.83;;;12.57;;
2622;SDS011;1321;48.690;9.022;2023-04-02T05:37:45;12.60;;;12.30;;
2622;SDS011;1321;48.690;9.022;2023-04-02T05:40:18;12.87;;;12.57;;
2622;SDS011;1321;48.690;9.022;2023-04-02T05:42:50;13.23;;;12.87;;
2622;SDS011;1321;48.690;9.022;2023-04-02T05:45:25;12.90;;;12.60;;
2622;SDS011;1321;48.690;9.022;2023-04-02T05:47:57;14.00;;;13.60;;
2622;SDS011;1321;48.690;9.022;2023-04-02T05:50:31;13.20;;;12.87;;
2622;SDS011;1321;48.690;9.022;2023-04-02T05:53:05;12.90;;;12.53;;
2622;SDS011;1321;48.690;9.022;2023-04-02T05:55:40;12.80;;;12.50;;
2622;SDS011;1321;48.690;9.022;2023-04-02T05:58:13;13.10;;;12.80;;
2622;SDS011;1321;48.690;9.022;2023-04-02T06:01:04;12.93;;;12.73;;
2622;SDS011;1321;48.690;9.022;2023-04-02T06:03:45;13.17;;;12.87;;
2622;SDS011;1321;48.690;9.022;2023-04-02T06:06:22;13.00;;;12.70;;
2622;SDS011;1321;48.690;9.022;2023-04-02T06:08:56;12.97;;;12.67;;
2622;SDS011;1321;48.690;9.022;2023-04-02T06:11:28;13.00;;;12.70;;
2622;SDS011;1321;48.690;9.022;2023-04-02T06:13:59;12.90;;;12.60;;
2622;SDS011;1321;48.690;9.022;2023-04-02T06:16:29;13.37;;;13.00;;
2622;SDS011;1321;48.690;9.022;2023-04-02T06:18:59;12.80;;;12.50;;
2622;SDS011;1321;48.690;9.022;2023-04-02T06:21:29;15.70;;;14.40;;
2622;SDS011;1321;48.690;9.022;2023-04-02T06:23:59;13.00;;;12.70;;
2622;SDS011;1321;48.690;9.022;2023-04-02T06:26:32;12.97;;;12.60;;
2622;SDS011;1321;48.690;9.022;2023-04-02T06:29:04;13.00;;;12.60;;
2622;SDS011;1321;48.690;9.022;2023-04-02T06:31:37;13.30;;;12.90;;
2622;SDS011;1321;48.690;9.022;2023-04-02T06:34:14;13.10;;;12.80;;
2622;SDS011;1321;48.690;9.022;2023-04-02T06:36:45;13.10;;;12.70;;
2622;SDS011;1321;48.690;9.022;2023-04-02T06:39:16;12.40;;;12.10;;
2622;SDS011;1321;48.690;9.022;2023-04-02T06:41:45;12.93;;;12.63;;
2622;SDS011;1321;48.690;9.022;2023-04-02T06:44:20;12.80;;;12.50;;
2622;SDS011;1321;48.690;9.022;2023-04-02T06:46:53;12.60;;;12.40;;
2622;SDS011;1321;48.690;9.022;2023-04-02T06:49:27;12.57;;;12.27;;
2622;SDS011;1321;48.690;9.022;2023-04-02T06:52:02;12.30;;;12.00;;
2622;SDS011;1321;48.690;9.022;2023-04-02T06:54:35;12.60;;;12.30;;
2622;SDS011;1321;48.690;9.022;2023-04-02T06:57:03;12.87;;;12.57;;
2622;SDS011;1321;48.690;9.022;2023-04-02T06:59:33;12.70;;;12.40;;
2622;SDS011;1321;48.690;9.022;2023-04-02T07:02:02;13.30;;;13.00;;
2622;SDS011;1321;48.690;9.022;2023-04-02T07:04:39;13.17;;;12.80;;
2622;SDS011;1321;48.690;9.022;2023-04-02T07:07:09;13.97;;;13.67;;
2622;SDS011;1321;48.690;9.022;2023-04-02T07:09:37;13.67;;;13.20;;
2622;SDS011;1321;48.690;9.022;2023-04-02T07:12:09;13.37;;;13.03;;
2622;SDS011;1321;48.690;9.022;2023-04-02T07:14:38;13.70;;;13.40;;
2622;SDS011;1321;48.690;9.022;2023-04-02T07:17:06;13.30;;;13.00;;
2622;SDS011;1321;48.690;9.022;2023-04-02T07:19:40;12.60;;;12.20;;
2622;SDS011;1321;48.690;9.022;2023-04-02T07:22:12;13.30;;;13.00;;
2622;SDS011;1321;48.690;9.022;2023-04-02T07:24:40;13.20;;;12.90;;
2622;SDS011;1321;48.690;9.022;2023-04-02T07:27:08;13.63;;;13.33;;
2622;SDS011;1321;48.690;9.022;2023-04-02T07:29:37;13.50;;;13.10;;
2622;SDS011;1321;48.690;9.022;2023-04-02T07:32:08;13.60;;;13.30;;
2622;SDS011;1321;48.690;9.022;2023-04-02T07:34:37;13.40;;;13.03;;
2622;SDS011;1321;48.690;9.022;2023-04-02T07:37:06;13.20;;;12.90;;
2622;SDS011;1321;48.690;9.022;2023-04-02T07:39:35;13.63;;;13.33;;
2622;SDS011;1321;48.690;9.022;2023-04-02T07:42:06;13.93;;;13.63;;
2622;SDS011;1321;48.690;9.022;2023-04-02T07:44:34;13.77;;;13.47;;
2622;SDS011;1321;48.690;9.022;2023-04-02T07:47:02;14.00;;;13.60;;
2622;SDS011;1321;48.690;9.022;2023-04-02T07:49:31;14.30;;;13.80;;
2622;SDS011;1321;48.690;9.022;2023-04-02T07:51:59;13.67;;;13.27;;
2622;SDS011;1321;48.690;9.022;2023-04-02T07:54:27;14.57;;;14.10;;
2622;SDS011;1321;48.690;9.022;2023-04-02T07:56:57;13.47;;;13.17;;
2622;SDS011;1321;48.690;9.022;2023-04-02T07:59:25;13.60;;;13.30;;
2622;SDS011;1321;48.690;9.022;2023-04-02T08:01:53;13.50;;;13.20;;
2622;SDS011;1321;48.690;9.022;2023-04-02T08:04:21;13.57;;;13.20;;
2622;SDS011;1321;48.690;9.022;2023-04-02T08:06:50;13.40;;;13.00;;
2622;SDS011;1321;48.690;9.022;2023-04-02T08:09:18;13.30;;;13.00;;
2622;SDS011;1321;48.690;9.022;2023-04-02T08:11:46;13.63;;;13.33;;
2622;SDS011;1321;48.690;9.022;2023-04-02T08:14:15;13.47;;;13.17;;
2622;SDS011;1321;48.690;9.022;2023-04-02T08:16:44;13.80;;;13.47;;
2622;SDS011;1321;48.690;9.022;2023-04-02T08:19:14;14.60;;;14.20;;
2622;SDS011;1321;48.690;9.022;2023-04-02T08:21:43;13.57;;;13.17;;
2622;SDS011;1321;48.690;9.022;2023-04-02T08:24:13;13.40;;;13.10;;
2622;SDS011;1321;48.690;9.022;2023-04-02T08:26:44;13.63;;;13.33;;
2622;SDS011;1321;48.690;9.022;2023-04-02T08:29:12;13.60;;;13.20;;
2622;SDS011;1321;48.690;9.022;2023-04-02T08:31:42;13.20;;;12.90;;
2622;SDS011;1321;48.690;9.022;2023-04-02T08:34:10;13.53;;;13.23;;
2622;SDS011;1321;48.690;9.022;2023-04-02T08:36:39;13.43;;;13.13;;
2622;SDS011;1321;48.690;9.022;2023-04-02T08:39:10;13.43;;;13.10;;
2622;SDS011;1321;48.690;9.022;2023-04-02T08:41:40;13.30;;;13.00;;
2622;SDS011;1321;48.690;9.022;2023-04-02T08:44:17;15.70;;;15.00;;
2622;SDS011;1321;48.690;9.022;2023-04-02T08:46:53;13.40;;;13.10;;
2622;SDS011;1321;48.690;9.022;2023-04-02T08:49:27;13.57;;;13.27;;
2622;SDS011;1321;48.690;9.022;2023-04-02T08:51:58;13.30;;;13.00;;
2622;SDS011;1321;48.690;9.022;2023-04-02T08:54:27;13.70;;;13.30;;
2622;SDS011;1321;48.690;9.022;2023-04-02T08:56:57;13.83;;;13.43;;
2622;SDS011;1321;48.690;9.022;2023-04-02T08:59:31;13.70;;;13.30;;
2622;SDS011;1321;48.690;9.022;2023-04-02T09:02:04;14.23;;;13.63;;
2622;SDS011;1321;48.690;9.022;2023-04-02T09:04:47;13.50;;;13.20;;
2622;SDS011;1321;48.690;9.022;2023-04-02T09:07:15;13.10;;;12.90;;
2622;SDS011;1321;48.690;9.022;2023-04-02T09:09:45;13.70;;;13.40;;
2622;SDS011;1321;48.690;9.022;2023-04-02T09:12:16;13.40;;;13.10;;
2622;SDS011;1321;48.690;9.022;2023-04-02T09:14:49;13.83;;;13.53;;
2622;SDS011;1321;48.690;9.022;2023-04-02T09:17:29;13.70;;;13.40;;
2622;SDS011;1321;48.690;9.022;2023-04-02T09:20:17;13.37;;;13.07;;
2622;SDS011;1321;48.690;9.022;2023-04-02T09:22:47;13.50;;;13.13;;
2622;SDS011;1321;48.690;9.022;2023-04-02T09:25:17;13.60;;;13.10;;
2622;SDS011;1321;48.690;9.022;2023-04-02T09:27:48;13.47;;;13.17;;
2622;SDS011;1321;48.690;9.022;2023-04-02T09:30:21;13.90;;;13.60;;
2622;SDS011;1321;48.690;9.022;2023-04-02T09:32:58;13.43;;;13.13;;
2622;SDS011;1321;48.690;9.022;2023-04-02T09:35:28;13.13;;;12.93;;
2622;SDS011;1321;48.690;9.022;2023-04-02T09:38:14;13.87;;;13.47;;
2622;SDS011;1321;48.690;9.022;2023-04-02T09:40:47;13.33;;;13.13;;
2622;SDS011;1321;48.690;9.022;2023-04-02T09:43:18;13.30;;;13.00;;
2622;SDS011;1321;48.690;9.022;2023-04-02T09:45:54;12.83;;;12.53;;
2622;SDS011;1321;48.690;9.022;2023-04-02T09:48:27;13.50;;;13.20;;
2622;SDS011;1321;48.690;9.022;2023-04-02T09:51:03;13.50;;;13.20;;
2622;SDS011;1321;48.690;9.022;2023-04-02T09:53:33;13.63;;;13.33;;
2622;SDS011;1321;48.690;9.022;2023-04-02T09:56:10;13.53;;;13.23;;
2622;SDS011;1321;48.690;9.022;2023-04-02T09:58:40;13.00;;;12.80;;
2622;SDS011;1321;48.690;9.022;2023-04-02T10:01:23;25.93;;;21.73;;
2622;SDS011;1321;48.690;9.022;2023-04-02T10:03:57;14.60;;;14.20;;
2622;SDS011;1321;48.690;9.022;2023-04-02T10:06:29;14.10;;;13.70;;
2622;SDS011;1321;48.690;9.022;2023-04-02T10:09:02;13.80;;;13.40;;
2622;SDS011;1321;48.690;9.022;2023-04-02T10:11:47;13.60;;;13.30;;
2622;SDS011;1321;48.690;9.022;2023-04-02T10:14:17;13.63;;;13.33;;
2622;SDS011;1321;48.690;9.022;2023-04-02T10:16:47;13.90;;;13.60;;
2622;SDS011;1321;48.690;9.022;2023-04-02T10:19:21;14.30;;;13.90;;
2622;SDS011;1321;48.690;9.022;2023-04-02T10:21:56;14.23;;;13.93;;
2622;SDS011;1321;48.690;9.022;2023-04-02T10:24:26;13.13;;;12.93;;
2622;SDS011;1321;48.690;9.022;2023-04-02T10:27:00;13.30;;;13.00;;
2622;SDS011;1321;48.690;9.022;2023-04-02T10:29:44;13.80;;;13.50;;
2622;SDS011;1321;48.690;9.022;2023-04-02T10:32:31;13.60;;;13.30;;
2622;SDS011;1321;48.690;9.022;2023-04-02T10:35:10;13.80;;;13.50;;
2622;SDS011;1321;48.690;9.022;2023-04-02T10:37:55;13.70;;;13.40;;
2622;SDS011;1321;48.690;9.022;2023-04-02T10:40:46;13.53;;;13.23;;
2622;SDS011;1321;48.690;9.022;2023-04-02T10:43:38;13.50;;;13.20;;
2622;SDS011;1321;48.690;9.022;2023-04-02T10:46:24;14.17;;;13.80;;
2622;SDS011;1321;48.690;9.022;2023-04-02T10:49:01;13.40;;;13.10;;
2622;SDS011;1321;48.690;9.022;2023-04-02T10:51:40;13.50;;;13.20;;
2622;SDS011;1321;48.690;9.022;2023-04-02T10:54:16;13.50;;;13.30;;
2622;SDS011;1321;48.690;9.022;2023-04-02T10:56:53;13.00;;;12.70;;
2622;SDS011;1321;48.690;9.022;2023-04-02T10:59:28;13.40;;;13.10;;
2622;SDS011;1321;48.690;9.022;2023-04-02T11:01:59;13.33;;;13.13;;
2622;SDS011;1321;48.690;9.022;2023-04-02T11:04:34;13.20;;;13.00;;
2622;SDS011;1321;48.690;9.022;2023-04-02T11:07:12;15.13;;;14.67;;
2622;SDS011;1321;48.690;9.022;2023-04-02T11:09:45;13.50;;;13.20;;
2622;SDS011;1321;48.690;9.022;2023-04-02T11:12:19;13.37;;;13.10;;
2622;SDS011;1321;48.690;9.022;2023-04-02T11:14:50;13.67;;;13.40;;
2622;SDS011;1321;48.690;9.022;2023-04-02T11:17:20;13.20;;;12.90;;
2622;SDS011;1321;48.690;9.022;2023-04-02T11:19:49;13.73;;;13.43;;
2622;SDS011;1321;48.690;9.022;2023-04-02T11:22:20;13.73;;;13.43;;
2622;SDS011;1321;48.690;9.022;2023-04-02T11:24:50;13.90;;;13.60;;
2622;SDS011;1321;48.690;9.022;2023-04-02T11:27:24;14.10;;;13.80;;
2622;SDS011;1321;48.690;9.022;2023-04-02T11:29:56;13.80;;;13.40;;
2622;SDS011;1321;48.690;9.022;2023-04-02T11:32:32;13.70;;;13.40;;
2622;SDS011;1321;48.690;9.022;2023-04-02T11:41:06;13.97;;;13.20;;
2622;SDS011;1321;48.690;9.022;2023-04-02T11:43:51;13.93;;;13.60;;
2622;SDS011;1321;48.690;9.022;2023-04-02T11:46:40;13.90;;;13.60;;
2622;SDS011;1321;48.690;9.022;2023-04-02T11:51:59;13.40;;;13.10;;
2622;SDS011;1321;48.690;9.022;2023-04-02T11:54:37;13.70;;;13.40;;
2622;SDS011;1321;48.690;9.022;2023-04-02T11:57:08;13.40;;;13.10;;
2622;SDS011;1321;48.690;9.022;2023-04-02T11:59:49;13.50;;;13.20;;
2622;SDS011;1321;48.690;9.022;2023-04-02T12:02:33;12.53;;;12.30;;
2622;SDS011;1321;48.690;9.022;2023-04-02T12:05:15;13.20;;;12.90;;
2622;SDS011;1321;48.690;9.022;2023-04-02T12:07:52;12.60;;;12.40;;
2622;SDS011;1321;48.690;9.022;2023-04-02T12:10:48;12.53;;;12.30;;
2622;SDS011;1321;48.690;9.022;2023-04-02T12:13:46;12.50;;;12.30;;
2622;SDS011;1321;48.690;9.022;2023-04-02T12:16:14;12.80;;;12.50;;
2622;SDS011;1321;48.690;9.022;2023-04-02T12:18:43;12.40;;;12.20;;
2622;SDS011;1321;48.690;9.022;2023-04-02T12:21:13;12.63;;;12.40;;
2622;SDS011;1321;48.690;9.022;2023-04-02T12:23:44;12.60;;;12.40;;
2622;SDS011;1321;48.690;9.022;2023-04-02T12:26:24;12.67;;;12.37;;
2622;SDS011;1321;48.690;9.022;2023-04-02T12:29:18;12.27;;;12.07;;
2622;SDS011;1321;48.690;9.022;2023-04-02T12:31:50;12.43;;;12.23;;
2622;SDS011;1321;48.690;9.022;2023-04-02T12:34:20;12.70;;;12.50;;
2622;SDS011;1321;48.690;9.022;2023-04-02T12:36:50;12.67;;;12.47;;
2622;SDS011;1321;48.690;9.022;2023-04-02T12:39:24;12.40;;;12.20;;
2622;SDS011;1321;48.690;9.022;2023-04-02T12:41:53;12.87;;;12.67;;
2622;SDS011;1321;48.690;9.022;2023-04-02T12:44:24;12.80;;;12.60;;
2622;SDS011;1321;48.690;9.022;2023-04-02T12:46:53;12.60;;;12.40;;
2622;SDS011;1321;48.690;9.022;2023-04-02T12:52:10;12.37;;;12.17;;
2622;SDS011;1321;48.690;9.022;2023-04-02T12:54:45;13.07;;;12.60;;
2622;SDS011;1321;48.690;9.022;2023-04-02T12:57:31;13.00;;;12.70;;
2622;SDS011;1321;48.690;9.022;2023-04-02T13:03:15;12.70;;;12.50;;
2622;SDS011;1321;48.690;9.022;2023-04-02T13:05:45;12.80;;;12.60;;
2622;SDS011;1321;48.690;9.022;2023-04-02T13:08:18;12.90;;;12.60;;
2622;SDS011;1321;48.690;9.022;2023-04-02T13:10:54;12.90;;;12.60;;
2622;SDS011;1321;48.690;9.022;2023-04-02T13:13:25;13.83;;;13.53;;
2622;SDS011;1321;48.690;9.022;2023-04-02T13:16:04;12.87;;;12.57;;
2622;SDS011;1321;48.690;9.022;2023-04-02T13:18:48;13.10;;;12.80;;
2622;SDS011;1321;48.690;9.022;2023-04-02T13:21:23;13.60;;;13.30;;
2622;SDS011;1321;48.690;9.022;2023-04-02T13:23:54;13.83;;;13.43;;
2622;SDS011;1321;48.690;9.022;2023-04-02T13:26:22;13.80;;;13.50;;
2622;SDS011;1321;48.690;9.022;2023-04-02T13:28:55;13.73;;;13.40;;
2622;SDS011;1321;48.690;9.022;2023-04-02T13:31:29;13.90;;;13.60;;
2622;SDS011;1321;48.690;9.022;2023-04-02T13:33:58;13.23;;;12.93;;
2622;SDS011;1321;48.690;9.022;2023-04-02T13:36:27;12.87;;;12.67;;
2622;SDS011;1321;48.690;9.022;2023-04-02T13:38:55;12.60;;;12.40;;
2622;SDS011;1321;48.690;9.022;2023-04-02T13:41:24;12.67;;;12.47;;
2622;SDS011;1321;48.690;9.022;2023-04-02T13:43:54;13.23;;;12.97;;
2622;SDS011;1321;48.690;9.022;2023-04-02T13:46:25;13.67;;;13.37;;
2622;SDS011;1321;48.690;9.022;2023-04-02T13:48:57;13.90;;;13.60;;
2622;SDS011;1321;48.690;9.022;2023-04-02T13:51:26;14.00;;;13.70;;
2622;SDS011;1321;48.690;9.022;2023-04-02T13:54:02;14.10;;;13.80;;
2622;SDS011;1321;48.690;9.022;2023-04-02T13:56:33;14.27;;;13.97;;
2622;SDS011;1321;48.690;9.022;2023-04-02T13:59:02;13.80;;;13.50;;
2622;SDS011;1321;48.690;9.022;2023-04-02T14:01:32;14.23;;;13.93;;
2622;SDS011;1321;48.690;9.022;2023-04-02T14:04:01;14.47;;;14.07;;
2622;SDS011;1321;48.690;9.022;2023-04-02T14:06:36;14.50;;;14.10;;
2622;SDS011;1321;48.690;9.022;2023-04-02T14:09:24;15.93;;;15.53;;
2622;SDS011;1321;48.690;9.022;2023-04-02T14:12:00;15.17;;;14.67;;
2622;SDS011;1321;48.690;9.022;2023-04-02T14:14:37;13.53;;;13.23;;
2622;SDS011;1321;48.690;9.022;2023-04-02T14:17:21;14.37;;;13.97;;
2622;SDS011;1321;48.690;9.022;2023-04-02T14:20:04;14.20;;;13.90;;
2622;SDS011;1321;48.690;9.022;2023-04-02T14:22:47;13.60;;;13.30;;
2622;SDS011;1321;48.690;9.022;2023-04-02T14:25:28;13.53;;;13.23;;
2622;SDS011;1321;48.690;9.022;2023-04-02T14:28:03;14.27;;;13.87;;
2622;SDS011;1321;48.690;9.022;2023-04-02T14:30:38;14.50;;;14.10;;
2622;SDS011;1321;48.690;9.022;2023-04-02T14:33:14;14.33;;;13.93;;
2622;SDS011;1321;48.690;9.022;2023-04-02T14:35:53;14.00;;;13.70;;
2622;SDS011;1321;48.690;9.022;2023-04-02T14:38:27;14.13;;;13.80;;
2622;SDS011;1321;48.690;9.022;2023-04-02T14:41:03;14.60;;;14.20;;
2622;SDS011;1321;48.690;9.022;2023-04-02T14:43:37;14.90;;;14.50;;
2622;SDS011;1321;48.690;9.022;2023-04-02T14:46:11;14.20;;;13.80;;
2622;SDS011;1321;48.690;9.022;2023-04-02T14:48:41;14.30;;;13.90;;
2622;SDS011;1321;48.690;9.022;2023-04-02T14:51:16;15.33;;;14.83;;
2622;SDS011;1321;48.690;9.022;2023-04-02T14:53:51;14.30;;;13.80;;
2622;SDS011;1321;48.690;9.022;2023-04-02T14:56:26;15.00;;;14.50;;
2622;SDS011;1321;48.690;9.022;2023-04-02T14:59:03;14.20;;;13.90;;
2622;SDS011;1321;48.690;9.022;2023-04-02T15:01:42;14.80;;;14.40;;
2622;SDS011;1321;48.690;9.022;2023-04-02T15:04:13;14.80;;;14.40;;
2622;SDS011;1321;48.690;9.022;2023-04-02T15:06:48;15.23;;;14.70;;
2622;SDS011;1321;48.690;9.022;2023-04-02T15:09:19;14.70;;;14.30;;
2622;SDS011;1321;48.690;9.022;2023-04-02T15:11:54;14.43;;;14.13;;
2622;SDS011;1321;48.690;9.022;2023-04-02T15:14:26;14.70;;;14.40;;
2622;SDS011;1321;48.690;9.022;2023-04-02T15:16:59;14.53;;;14.20;;
2622;SDS011;1321;48.690;9.022;2023-04-02T15:19:28;15.00;;;14.60;;
2622;SDS011;1321;48.690;9.022;2023-04-02T15:22:01;14.60;;;14.20;;
2622;SDS011;1321;48.690;9.022;2023-04-02T15:24:39;14.50;;;14.10;;
2622;SDS011;1321;48.690;9.022;2023-04-02T15:27:17;15.20;;;14.60;;
2622;SDS011;1321;48.690;9.022;2023-04-02T15:29:56;14.50;;;14.17;;
2622;SDS011;1321;48.690;9.022;2023-04-02T15:32:35;14.50;;;14.10;;
2622;SDS011;1321;48.690;9.022;2023-04-02T15:35:16;13.87;;;13.57;;
2622;SDS011;1321;48.690;9.022;2023-04-02T15:37:54;14.30;;;13.90;;
2622;SDS011;1321;48.690;9.022;2023-04-02T15:43:33;14.50;;;14.10;;
2622;SDS011;1321;48.690;9.022;2023-04-02T15:46:08;14.53;;;14.13;;
2622;SDS011;1321;48.690;9.022;2023-04-02T15:48:54;13.83;;;13.53;;
2622;SDS011;1321;48.690;9.022;2023-04-02T15:51:43;13.97;;;13.67;;
2622;SDS011;1321;48.690;9.022;2023-04-02T15:54:25;13.90;;;13.60;;
2622;SDS011;1321;48.690;9.022;2023-04-02T15:57:06;14.37;;;14.07;;
2622;SDS011;1321;48.690;9.022;2023-04-02T15:59:48;15.10;;;14.60;;
2622;SDS011;1321;48.690;9.022;2023-04-02T16:02:38;14.30;;;14.00;;